Aviation WX Report

Aviation WX Report (1)

         

                                                                                                                                 GENERAL AVIATION FORECAST ST. MAARTEN

 

 

DATE ISSUED: February 25th, 2017     VALID TIME: 12:00 -24:00Z

AREA OF COVERAGE: TNCM TMA (Bounded by 18.25N 063.39W, 18.25N 062.51W, 17.47N 062.22W, 17.26N 062.53W, 17.36N 063.39W AND 18.25N 063.39W)

LEVELS OF COVERAGE: MSL TO FL100

 

SIG. WX: SHRA

SIG. CLDS: SCT TCU BASE 1600 – 2200 FT AND TOPS ABV FL100 BKN SC 3500-4000 FT

SFC. VIS: 10 + KM, 7 KM IN SHRA

 
FCST WNDS/TEMP ALOFT 26/18:00z
 

LEVEL

WINDS

TEMP

0500 FT

110/20KT

+25

1000 FT

110/20KT

+22

2000 FT

110/20KT

+20

3000 FT

110/20KT

+17

FL050

110/15KT

+15

FL080

090/10KT

+10

FL100

090/10KT

+07

 
 

FZL: ABOVE FL100

 

SPECIAL FEATURES: NONE

TAF:


TNCM 261144Z 2612/2712 09009KT P6SM FEW024 FM261400 08011KT P6SM VCSH SCT020 SCT025 SCT050 FM262300 08011KT P6SM SCT018 SCT020


FORECASTER: GORDON.

dwx

 

TAF LPPT 261100Z 2612/2718 VRB03KT 9999 FEW018 BKN030 BECMG 2615/2618 30007KT
BECMG 2700/2703 VRB03KT SCT012
BECMG 2712/2714 30008KT SCT015 BKN030

TAF LEMD 261100Z 2612/2718 VRB04KT CAVOK TX16/2615Z TN04/2706Z PROB40 TEMPO 2612/2614 BKN012
BECMG 2615/2617 23010KT
PROB30 TEMPO 2615/2618 23008G18KT

PROB30 TEMPO 2703/2708 0500 FG BKN004

TAF LFBD 261100Z 2612/2718 20008KT 9999 BKN014 OVC030 TEMPO 2612/2617 2500 -RADZ BR BKN004 BKN012 OVC040 BECMG 2618/2620 BKN030
PROB40 TEMPO 2622/2708 4000 BR

BECMG 2710/2712 24015G25KT
TEMPO 2712/2718 4500 RA
PROB30 TEMPO 2712/2718 24020G35KT TX15/2613Z TN08/2706Z

TAF LFBO 261100Z 2612/2718 29008KT 9999 BKN020 BECMG 2618/2620 VRB02KT CAVOK
TEMPO 2700/2709 4000 BR SCT008
PROB40 TEMPO 2704/2708 0800 VV///

BECMG 2707/2709 16010KT

TAF LFLL 261100Z 2612/2718 18010KT CAVOK BECMG 2705/2708 18015G25KT
TEMPO 2709/2718 18025G35KT
PROB40 TEMPO 2711/2716 18025G43KT

17.36N 63.40W and 18.30N 63.40W).
Levels of Coverage: MSL to FL100.
SIG WX: ISOL SHRA.
SIG CLDS: FEW TCU 1000 - 1500FT AND TOPS ABV FL100.
SCT/ BKN LYR SC/AC 2000 - 3500FT AND TOPS ABV FL100.
SFC VIS: 10+ KM, 3 - 7 KM IN SHRA.
FCST WNDS/TEMP ALOFT: 14/ 18:00Z
0500 FT.. 200/10KT +26 FL050.....220/10KT +16
1000 FT.. 200/10KT +24 FL080.....220/05KT +11
2000 FT.. 210/15KT +22 FL100.....200/10KT +08
3000 FT.. 210/15KT +19
FZL: ABV FL100.
SPECIAL FEATURES:
NONE.
TAFS:
TAF TNCM 141200Z 1412/1512 14012KT P6SM VCSH BKN018 BKN035
FM141800 21008KT P6SM VCSH SCT022 SCT050=
Forecaster: DJF.

Save

Save

Save

Save

Save

Save

Save

Save

Save

Save

Save

Save

Save

Save

Save

Save

Save

Save

Save

Save

Save

Save

Save

Save

Save

Save

Save

Save

Save

Save

Save

Save

Save

Save

Save

Save

Save

Save

Save

Save

Save

Save

Save

Save

Save

Save

Save

Save

Save

Save

Save

Save

Save

Save

Save

Save

Save

Save

Save

Save

Save

Save

Save

Save

Save

Save

Save

Save

Save

Save

Save

Save

Save

Save

Save

Save

Save

Save

Save

Save

Save

Save

Save

Save

Save

Save

Save

Save

Save

Save

Save

Save

Save

Save

Save

Save

Save

Save

Save

Save

Save

Save

Save

Save

Save

Save

Save

Save

Save

Save

Save

Save

Save

International News

Go to top